Date,TemperatureHighF,TemperatureAvgF,TemperatureLowF,DewpointHighF,DewpointAvgF,DewpointLowF,HumidityHigh,HumidityAvg,HumidityLow,PressureMaxIn,PressureMinIn,WindSpeedMaxMPH,WindSpeedAvgMPH,GustSpeedMaxMPH,PrecipitationSumIn
2013-1-1,13,0,-10,2,-5,-14,87,78,59,30.87,30.41,13,1,14,0.00
2013-1-2,18,4,-7,5,-2,-11,87,77,48,30.89,30.68,18,2,19,0.00
2013-1-3,15,-3,-15,-1,-9,-20,89,75,47,31.11,30.88,8,1,9,0.00
2013-1-4,24,4,-8,7,-2,-12,93,76,46,31.10,30.79,9,1,9,0.01
2013-1-5,26,7,-7,4,-2,-11,91,69,35,31.01,30.83,15,2,15,0.00
2013-1-6,32,12,-3,7,0,-9,79,60,22,30.98,30.57,7,1,8,0.01
2013-1-7,30,13,-1,7,2,-5,85,62,31,30.58,30.40,9,-2,11,0.01
2013-1-8,29,13,4,17,5,-4,90,72,54,30.89,30.44,12,2,13,0.01
2013-1-9,41,16,-1,18,7,-5,93,71,32,30.94,30.58,7,1,7,0.00
2013-1-10,38,22,11,15,7,2,75,55,24,30.58,29.78,8,2,10,0.00
2013-1-11,22,11,1,17,3,-11,89,70,31,30.12,29.51,18,3,27,0.01
2013-1-12,12,-3,-12,-4,-10,-17,86,70,37,30.51,30.12,10,2,11,0.00
2013-1-13,7,-4,-11,-4,-12,-17,79,69,41,30.64,30.51,8,1,9,0.00
2013-1-14,2,-11,-21,-7,-17,-26,83,74,59,30.95,30.63,11,1,11,0.00
2013-1-15,4,-6,-24,0,-11,-29,85,78,67,31.24,30.95,8,1,9,0.00
2013-1-16,28,12,3,16,6,0,89,80,59,31.22,30.87,10,1,12,0.00
2013-1-17,31,11,-1,17,5,-4,95,77,48,31.07,30.89,9,1,9,0.00
2013-1-18,35,15,2,14,4,-2,90,65,29,30.94,30.72,9,2,10,0.00
2013-1-19,37,17,3,8,3,-2,82,59,25,30.85,30.72,12,2,13,0.00
2013-1-20,37,16,2,6,2,-4,82,57,24,30.76,30.61,11,2,12,0.00
2013-1-21,34,16,4,10,3,-2,80,59,33,30.77,30.63,14,3,14,0.00
2013-1-22,43,19,4,6,0,-7,71,47,12,30.80,30.67,9,2,9,0.00
2013-1-23,53,27,8,18,3,-11,56,40,7,30.80,30.52,16,2,18,0.00
2013-1-24,44,29,16,28,17,6,92,63,27,30.52,30.28,17,3,20,0.00
2013-1-25,40,31,26,29,27,24,92,84,60,30.43,30.25,8,1,9,0.01
2013-1-26,42,31,23,31,26,20,95,82,45,30.26,29.85,6,1,7,0.00
2013-1-27,43,29,16,29,22,10,96,78,41,29.93,29.84,11,1,15,0.00
2013-1-28,36,20,10,24,15,6,92,80,42,29.94,29.79,21,2,25,0.00
2013-1-29,16,7,-3,6,0,-7,88,72,40,30.39,29.92,21,3,21,0.00
2013-1-30,20,11,1,12,5,-5,86,78,64,30.51,30.38,13,4,16,0.00
2013-1-31,30,20,11,17,13,7,87,76,54,30.57,30.46,13,2,16,0.00
2013-2-1,26,20,11,19,15,8,92,82,59,30.64,30.43,18,2,22,0.00
2013-2-2,37,18,3,20,9,0,91,72,38,30.84,30.64,7,2,8,0.01
2013-2-3,41,20,8,10,5,-9,87,59,13,30.73,30.35,11,2,13,0.01
2013-2-4,34,18,4,14,6,0,84,62,31,30.48,30.36,12,2,14,0.00
2013-2-5,45,24,8,21,14,4,88,67,32,30.51,30.22,8,2,9,0.00
2013-2-6,38,24,13,24,17,10,90,77,47,30.31,30.08,10,2,13,0.00
2013-2-7,39,18,0,16,5,-4,89,62,20,30.52,30.31,8,2,9,0.01
2013-2-8,43,24,8,21,9,-1,79,55,23,30.45,29.92,15,2,17,0.00
2013-2-9,29,18,11,22,13,6,93,80,53,29.93,29.65,12,2,15,0.01
2013-2-10,23,11,2,12,5,-2,89,77,53,30.32,29.88,11,2,13,0.00
2013-2-11,23,9,-2,10,3,-6,88,76,43,30.51,30.30,10,2,13,0.00
2013-2-12,19,2,-13,2,-6,-17,89,71,44,30.84,30.51,14,2,15,0.00
2013-2-13,30,16,4,15,9,-1,88,75,51,30.85,30.49,16,2,20,0.00
2013-2-14,29,18,13,15,10,5,90,73,47,30.51,30.38,16,3,19,0.00
2013-2-15,23,17,10,11,7,3,86,66,47,30.74,30.50,19,5,23,0.00
2013-2-16,38,18,2,14,7,-2,88,65,34,30.82,30.48,18,3,22,0.00
2013-2-17,43,22,5,15,4,-6,85,52,15,30.49,29.94,26,4,29,0.00
2013-2-18,24,13,2,11,3,-6,86,66,38,30.53,30.00,16,3,16,0.00
2013-2-19,41,16,-5,7,-2,-11,81,51,12,30.54,30.11,10,2,10,0.00
2013-2-20,35,22,12,17,9,3,87,60,29,30.11,29.70,9,2,10,0.00
2013-2-21,26,17,7,15,12,3,91,80,54,30.16,29.74,16,2,18,0.03
2013-2-22,21,9,-3,9,3,-7,87,76,53,30.45,30.16,16,2,16,0.01
2013-2-23,33,16,-1,21,9,-5,91,76,45,30.46,29.98,12,2,13,0.00
2013-2-24,21,14,4,14,8,0,90,80,52,30.41,29.91,11,2,14,0.00
2013-2-25,26,10,-4,9,1,-8,88,71,42,30.62,30.35,13,2,15,0.12
2013-2-26,20,11,3,11,6,-1,89,80,61,30.54,30.21,15,3,17,0.00
2013-2-27,24,9,0,8,2,-5,88,72,43,30.77,30.54,13,2,14,0.02
2013-2-28,26,11,-5,14,4,-9,88,74,41,30.89,30.77,16,3,19,0.00
2013-3-1,33,24,17,21,17,11,88,75,53,30.80,30.64,18,5,23,0.05
2013-3-2,41,30,23,24,21,16,88,69,46,30.70,30.32,11,2,13,0.01
2013-3-3,42,31,16,28,20,12,94,65,37,30.33,29.88,18,3,18,0.00
2013-3-4,34,20,-1,27,15,-5,94,82,65,30.49,29.80,19,2,20,0.12
2013-3-5,40,15,-8,13,2,-12,88,63,21,30.86,30.49,10,2,12,0.01
2013-3-6,51,29,11,15,9,3,75,49,17,30.64,30.13,19,3,19,0.01
2013-3-7,52,32,16,16,9,-1,77,46,14,30.17,30.04,18,3,19,0.00
2013-3-8,48,30,16,24,17,8,85,60,25,30.16,29.74,15,2,17,0.00
2013-3-9,29,23,13,26,20,7,93,88,76,30.24,29.67,15,2,16,0.05
2013-3-10,29,18,8,16,11,5,89,74,54,30.57,30.24,19,4,19,0.06
2013-3-11,32,21,8,24,15,5,89,77,52,30.57,30.33,14,3,15,0.01
2013-3-12,39,29,22,24,21,17,90,73,50,30.47,30.37,13,4,15,0.07
2013-3-13,47,29,15,24,18,12,91,66,33,30.61,30.46,15,3,22,0.00
2013-3-14,51,34,19,24,18,11,86,57,21,30.61,30.42,10,2,15,0.01
2013-3-15,54,38,21,23,18,15,85,51,23,30.44,30.05,22,4,27,0.00
2013-3-16,38,31,24,32,27,21,92,83,62,30.06,29.85,14,2,15,0.04
2013-3-17,35,25,18,27,19,6,93,77,38,30.03,29.77,27,4,46,0.10
2013-3-18,29,21,14,20,12,4,90,68,45,30.27,30.02,24,4,24,0.01
2013-3-19,36,25,12,19,2,-11,87,41,14,30.52,30.25,16,4,22,0.04
2013-3-20,43,24,6,27,11,-5,91,60,24,30.53,30.13,19,2,24,0.00
2013-3-21,34,25,16,28,22,13,94,89,65,30.13,29.72,15,2,15,0.13
2013-3-22,32,18,4,18,10,1,90,74,31,30.11,29.94,14,2,18,0.09
2013-3-23,16,12,3,13,5,-2,90,76,50,30.46,29.97,10,2,12,0.00
2013-3-24,14,5,-4,5,-2,-11,87,72,54,30.69,30.45,16,2,20,0.00
2013-3-25,28,8,-8,2,-4,-12,83,60,28,30.82,30.68,14,2,17,0.11
2013-3-26,45,24,0,24,12,-4,86,65,33,30.74,30.30,17,2,21,0.06
2013-3-27,46,33,26,28,22,16,94,68,32,30.30,30.11,13,2,16,0.21
2013-3-28,50,33,18,27,18,13,83,59,26,30.30,30.21,10,2,13,0.00
2013-3-29,47,34,25,31,25,19,94,72,41,30.33,30.19,19,2,21,0.01
2013-3-30,44,33,25,30,26,21,94,76,44,30.33,30.20,14,2,17,0.02
2013-3-31,50,33,17,22,16,11,90,58,21,30.36,30.19,11,2,12,0.02
2013-4-1,48,34,24,31,22,15,89,63,32,30.22,29.97,16,2,16,0.00
2013-4-2,41,28,23,29,24,19,94,85,53,30.23,30.00,12,2,13,0.00
2013-4-3,44,30,19,27,21,16,92,71,40,30.40,30.23,16,3,18,0.08
2013-4-4,52,36,21,26,20,14,86,57,22,30.41,30.19,11,2,13,0.00
2013-4-5,53,38,26,31,22,18,95,57,26,30.19,29.83,20,3,20,0.00
2013-4-6,45,34,22,28,24,18,93,69,37,30.06,29.97,15,2,16,0.12
2013-4-7,41,32,27,31,26,22,93,80,48,30.04,29.86,25,2,26,0.07
2013-4-8,54,37,24,32,22,11,88,61,20,29.91,29.49,16,3,18,0.00
2013-4-9,34,26,13,26,14,7,83,62,40,30.02,29.49,14,3,18,0.01
2013-4-10,31,17,8,15,8,4,86,69,48,30.34,30.02,17,4,25,0.01
2013-4-11,37,27,17,26,20,7,90,76,55,30.30,30.05,17,3,22,0.04
2013-4-12,43,30,23,27,20,11,93,67,29,30.12,30.03,15,3,17,0.02
2013-4-13,48,34,18,31,17,11,95,55,27,30.11,29.57,16,3,23,0.00
2013-4-14,32,25,18,30,17,7,93,75,42,29.92,29.58,26,4,26,0.04
2013-4-15,32,27,22,27,24,19,94,88,72,29.96,29.72,14,1,14,0.01
2013-4-16,47,32,16,29,22,13,89,67,38,29.95,29.73,17,3,21,0.70
2013-4-17,33,22,9,24,17,4,92,82,58,30.18,29.66,14,3,19,0.00
2013-4-18,21,12,4,8,3,0,86,70,47,30.71,30.18,26,4,26,0.06
2013-4-19,36,22,6,20,12,1,88,67,46,30.70,30.32,16,3,16,0.04
2013-4-20,41,29,22,28,24,18,94,80,48,30.33,30.10,13,2,15,0.01
2013-4-21,45,33,22,26,22,14,94,68,32,30.30,30.12,15,3,15,0.24
2013-4-22,39,32,23,30,26,18,94,79,45,30.12,29.94,18,2,19,0.04
2013-4-23,28,21,9,21,14,3,93,77,48,30.46,30.02,15,3,17,0.16
2013-4-24,37,22,4,16,9,-1,84,61,32,30.60,30.46,13,2,14,0.29
2013-4-25,52,33,12,22,13,6,78,50,23,30.57,30.13,15,3,21,0.00
2013-4-26,52,36,20,23,15,7,75,47,17,30.40,30.22,14,3,18,0.00
2013-4-27,54,38,21,24,17,13,74,47,21,30.40,30.22,14,3,16,0.00
2013-4-28,60,42,24,27,21,18,77,49,21,30.27,29.98,15,3,18,0.00
2013-4-29,60,46,31,30,24,19,85,48,21,30.05,29.69,22,4,24,0.00
2013-4-30,58,46,37,34,26,19,86,48,25,29.71,29.57,22,4,29,0.00
2013-5-1,37,26,17,34,23,13,94,88,78,30.62,29.68,18,2,22,0.00
2013-5-2,33,22,10,18,12,6,93,70,36,30.92,30.62,17,3,21,0.16
2013-5-3,48,31,10,26,14,6,87,56,25,30.79,30.26,11,2,16,0.16
2013-5-4,50,37,24,29,22,17,76,58,28,30.26,30.06,14,3,17,0.00
2013-5-5,55,40,28,32,25,17,81,58,23,30.21,30.04,12,2,14,0.00
2013-5-6,54,38,29,37,30,24,93,75,36,30.09,29.93,14,2,18,0.04
2013-5-7,52,39,32,35,30,23,96,74,34,30.07,29.99,13,2,15,0.04
2013-5-8,43,34,28,36,30,26,96,86,62,30.15,30.01,9,1,9,0.24
2013-5-9,44,36,29,35,31,25,97,83,55,30.30,30.13,9,1,10,0.56
2013-5-10,52,37,25,33,27,22,90,69,32,30.45,30.30,13,2,14,0.00
2013-5-11,56,40,27,34,27,20,88,64,28,30.48,30.32,15,2,18,0.01
2013-5-12,61,46,31,33,29,23,89,57,27,30.40,30.22,16,3,20,0.01
2013-5-13,69,50,34,37,30,24,82,52,19,30.30,30.08,14,3,17,0.00
2013-5-14,66,48,35,44,34,27,85,64,24,30.10,29.91,16,2,18,0.05
2013-5-15,62,45,33,44,37,30,92,76,34,30.04,29.94,15,2,15,0.10
2013-5-16,64,48,32,38,31,23,95,59,22,30.02,29.85,18,3,22,0.01
2013-5-17,68,50,33,31,21,6,78,41,11,29.92,29.75,15,3,17,0.00
2013-5-18,55,41,31,35,27,22,96,62,30,29.95,29.78,14,2,23,0.16
2013-5-19,45,36,32,36,32,28,97,84,55,30.04,29.89,15,2,16,0.39
2013-5-20,48,38,32,38,32,29,96,80,52,30.12,29.99,19,4,23,0.18
2013-5-21,53,41,32,31,28,23,82,62,34,30.13,29.97,18,3,21,0.00
2013-5-22,64,46,29,34,27,18,87,54,17,30.01,29.82,16,3,19,0.00
2013-5-23,70,52,34,34,29,13,86,48,13,29.96,29.77,17,2,18,0.00
2013-5-24,69,52,33,30,22,6,74,39,9,29.95,29.81,20,3,24,0.00
2013-5-25,70,52,32,26,16,-3,68,32,6,29.98,29.84,22,3,22,0.00
2013-5-26,71,53,34,30,21,8,66,35,9,29.93,29.75,16,3,18,0.00
2013-5-27,66,50,33,28,21,14,61,37,15,29.85,29.71,17,4,19,0.00
2013-5-28,63,48,31,28,21,13,69,39,15,29.81,29.55,19,4,24,0.00
2013-5-29,50,37,33,37,31,25,95,78,44,29.86,29.55,17,2,18,0.14
2013-5-30,49,36,30,33,30,22,95,80,37,30.03,29.83,24,4,26,0.20
2013-5-31,52,42,34,32,20,12,87,43,21,30.14,29.99,27,5,31,0.02
2013-6-1,60,44,30,38,26,18,76,50,26,30.24,30.12,14,3,15,0.00
2013-6-2,71,52,30,30,23,15,82,41,14,30.17,29.83,15,3,18,0.00
2013-6-3,69,53,36,32,26,20,64,40,17,29.87,29.72,19,4,27,0.00
2013-6-4,66,51,32,41,30,17,80,49,19,29.98,29.84,24,3,24,0.02
2013-6-5,67,50,33,38,30,20,90,52,18,30.03,29.90,21,3,22,0.02
2013-6-6,69,50,31,35,28,24,78,47,21,30.07,29.96,13,3,16,0.00
2013-6-7,65,52,38,38,33,27,82,52,26,30.03,29.81,19,3,21,0.00
2013-6-8,66,54,42,38,33,27,74,48,24,29.90,29.75,17,4,21,0.00
2013-6-9,75,57,36,35,31,26,77,43,18,30.01,29.88,17,3,19,0.00
2013-6-10,79,62,42,36,31,24,66,36,15,29.92,29.73,23,3,27,0.00
2013-6-11,76,61,40,34,23,1,64,30,6,29.89,29.71,25,4,30,0.00
2013-6-12,78,60,40,32,25,18,56,30,11,29.99,29.88,16,3,22,0.00
2013-6-13,76,60,42,38,30,22,57,34,16,29.95,29.76,23,3,27,0.00
2013-6-14,77,60,39,37,24,8,76,33,8,29.85,29.72,18,3,19,0.00
2013-6-15,72,56,36,33,27,12,74,38,12,29.97,29.83,21,3,22,0.00
2013-6-16,65,51,39,41,33,28,77,52,29,30.12,29.94,20,2,21,0.01
2013-6-17,70,52,36,40,33,25,87,54,21,30.15,30.01,15,2,18,0.00
2013-6-18,75,58,41,37,30,19,74,40,14,30.05,29.72,16,3,22,0.00
2013-6-19,77,58,36,31,17,-6,59,28,5,29.78,29.60,17,3,22,0.00
2013-6-20,76,57,34,28,18,10,55,26,9,29.83,29.70,20,4,22,0.00
2013-6-21,76,59,37,29,20,12,54,26,9,29.83,29.69,16,4,21,0.00
2013-6-22,73,56,38,30,22,16,52,29,12,29.83,29.67,21,4,23,0.00
2013-6-23,71,53,33,36,26,18,64,39,15,29.91,29.75,22,2,26,0.00
2013-6-24,72,56,37,39,25,13,82,39,11,29.87,29.75,20,3,23,0.00
2013-6-25,73,56,36,36,30,23,70,39,23,30.00,29.78,16,3,20,0.00
2013-6-26,80,61,39,39,33,26,72,41,18,30.05,29.93,12,2,14,0.00
2013-6-27,83,64,40,40,32,20,74,37,10,30.12,29.99,14,3,15,0.00
2013-6-28,84,62,48,51,39,24,86,50,12,30.09,29.91,16,3,18,0.09
2013-6-29,76,59,46,47,41,28,86,56,24,30.04,29.94,17,3,17,0.09
2013-6-30,73,56,43,52,43,38,91,64,30,30.09,29.92,19,3,22,0.05
2013-7-1,70,54,36,46,40,32,95,64,28,30.20,30.08,17,3,25,0.04
2013-7-2,72,55,37,43,39,32,90,58,25,30.16,29.99,15,3,19,0.00
2013-7-3,72,54,37,44,38,32,91,60,24,30.04,29.84,20,3,27,0.02
2013-7-4,78,57,38,51,39,21,91,59,13,30.00,29.81,15,2,16,0.02
2013-7-5,71,59,48,53,45,39,88,64,39,29.85,29.71,13,2,13,0.06
2013-7-6,74,60,45,50,45,39,96,64,30,29.86,29.75,13,2,16,0.10
2013-7-7,78,60,46,52,45,34,86,62,23,29.94,29.77,15,2,19,0.06
2013-7-8,76,59,43,53,43,34,97,63,23,30.04,29.92,17,3,21,0.27
2013-7-9,77,61,43,47,40,33,86,51,22,30.09,30.00,18,2,22,0.00
2013-7-10,81,64,47,48,41,35,73,47,20,30.06,29.81,14,2,17,0.00
2013-7-11,83,64,47,53,41,26,77,50,16,29.88,29.67,24,2,26,0.02
2013-7-12,71,57,48,56,48,43,89,75,38,29.96,29.77,7,1,10,0.16
2013-7-13,76,58,48,55,49,46,95,77,35,30.04,29.89,16,1,18,0.20
2013-7-14,69,55,43,56,49,42,98,82,53,30.08,29.99,10,1,12,0.66
2013-7-15,70,55,45,56,49,43,96,83,46,30.06,29.90,10,1,13,0.17
2013-7-16,73,57,39,49,43,37,94,65,33,30.07,29.93,11,2,13,0.00
2013-7-17,76,54,42,57,47,38,94,79,38,30.12,29.97,11,2,12,0.42
2013-7-18,74,54,43,53,47,42,97,81,44,30.15,30.00,12,2,16,0.70
2013-7-19,74,59,49,54,48,40,93,70,33,30.12,29.89,10,2,11,0.01
2013-7-20,78,61,44,50,39,25,92,53,16,29.94,29.77,13,3,16,0.01
2013-7-21,79,61,43,44,35,22,84,46,14,29.85,29.76,14,3,18,0.00
2013-7-22,80,63,46,42,30,12,70,36,9,29.88,29.81,13,3,15,0.00
2013-7-23,81,61,41,39,29,18,69,36,11,29.97,29.88,15,2,16,0.00
2013-7-24,75,59,50,50,42,30,82,55,21,29.98,29.84,13,2,17,0.06
2013-7-25,71,53,44,52,47,41,96,82,35,30.19,29.92,13,2,17,0.33
2013-7-26,74,55,40,50,41,29,98,66,20,30.26,30.07,13,2,16,0.12
2013-7-27,74,57,44,50,43,36,96,67,25,30.10,29.77,15,2,18,0.22
2013-7-28,61,53,48,52,49,47,97,87,61,29.92,29.78,14,1,14,0.32
2013-7-29,60,51,46,51,46,43,94,84,65,30.14,29.90,16,2,16,0.08
2013-7-30,69,54,40,48,43,38,96,69,36,30.25,30.14,12,2,16,0.00
2013-7-31,75,57,40,46,41,36,91,60,25,30.27,30.05,11,2,16,0.00
2013-8-1,73,56,43,48,43,39,87,65,31,30.08,29.92,12,2,16,0.00
2013-8-2,75,59,45,47,42,32,88,58,24,29.99,29.90,14,2,15,0.00
2013-8-3,76,58,46,49,44,39,84,61,28,30.05,29.88,18,2,18,0.00
2013-8-4,75,56,42,51,44,38,95,70,28,30.09,29.96,15,2,17,0.42
2013-8-5,69,54,42,51,45,41,98,77,40,30.08,29.98,18,2,25,0.42
2013-8-6,72,53,42,48,42,36,95,70,29,30.05,29.94,19,2,25,0.01
2013-8-7,62,51,44,47,42,38,90,74,47,30.04,29.94,8,1,8,0.02
2013-8-8,63,48,39,45,41,36,91,75,44,30.14,30.00,14,1,15,0.05
2013-8-9,64,48,40,45,40,35,90,77,34,30.25,30.11,20,2,20,0.05
2013-8-10,73,54,36,46,36,24,94,59,16,30.28,30.09,14,2,16,0.01
2013-8-11,73,55,42,46,40,30,83,60,21,30.12,29.96,11,2,13,0.00
2013-8-12,70,54,40,44,38,28,88,59,23,30.10,29.99,15,2,18,0.00
2013-8-13,65,50,39,48,41,35,90,73,40,30.22,30.06,16,2,17,0.05
2013-8-14,70,51,34,45,35,25,95,61,21,30.24,30.12,16,2,24,0.02
2013-8-15,74,55,37,40,31,22,81,47,17,30.17,30.06,19,3,21,0.00
2013-8-16,76,58,38,38,30,22,70,40,15,30.14,30.03,13,2,18,0.00
2013-8-17,77,60,42,42,32,23,70,40,15,30.09,29.92,12,2,16,0.00
2013-8-18,77,54,42,52,41,31,92,66,21,30.14,29.91,12,2,17,0.10
2013-8-19,81,57,39,53,42,30,96,65,17,30.19,29.96,13,2,15,0.03
2013-8-20,79,59,42,45,40,34,83,54,21,30.03,29.87,17,2,20,0.03
2013-8-21,78,60,43,47,42,37,83,56,25,30.02,29.88,14,2,15,0.00
2013-8-22,71,55,46,51,46,39,95,72,37,30.08,29.94,14,2,15,0.30
2013-8-23,74,55,44,55,48,42,98,80,35,30.07,29.85,13,1,13,0.46
2013-8-24,71,54,41,51,45,40,97,76,36,30.06,29.92,12,2,12,0.07
2013-8-25,68,53,44,54,48,42,96,83,44,30.10,30.02,10,1,10,0.14
2013-8-26,73,57,47,56,49,45,94,78,44,30.13,29.98,13,1,13,0.06
2013-8-27,77,58,43,54,46,35,97,72,24,30.10,29.91,14,2,14,0.07
2013-8-28,79,58,43,55,48,38,96,74,28,30.09,29.87,13,2,14,0.07
2013-8-29,78,56,42,53,47,41,97,76,30,30.17,30.00,13,2,15,0.07
2013-8-30,71,56,47,54,48,45,94,77,44,30.16,30.03,13,1,13,0.07
2013-8-31,70,54,43,54,47,41,95,78,42,30.08,29.97,9,1,10,0.09
2013-9-1,73,56,47,56,47,44,92,74,38,30.05,29.93,11,1,13,0.03
2013-9-2,77,60,47,50,46,33,88,64,23,30.02,29.88,10,1,11,0.00
2013-9-3,78,59,44,53,46,39,96,67,27,30.05,29.90,11,2,12,1.07
2013-9-4,75,56,46,57,50,45,98,81,40,30.14,30.00,11,1,12,1.11
2013-9-5,76,58,46,53,46,41,91,69,30,30.15,30.00,11,2,15,0.09
2013-9-6,77,55,43,58,47,40,94,77,30,30.12,29.93,11,2,17,0.18
2013-9-7,76,54,42,53,46,41,95,77,30,30.10,29.90,14,1,15,0.09
2013-9-8,74,55,42,52,45,37,95,72,28,30.03,29.81,9,1,12,0.01
2013-9-9,69,52,42,55,47,40,97,85,40,29.90,29.73,13,1,18,0.31
2013-9-10,62,52,47,52,48,46,98,89,64,30.01,29.87,11,1,12,0.66
2013-9-11,65,54,48,52,48,45,96,83,57,30.04,29.94,10,1,13,0.09
2013-9-12,61,52,47,52,48,44,97,87,63,30.07,29.96,9,1,11,0.29
2013-9-13,62,52,46,50,47,43,98,85,57,29.98,29.77,9,1,11,0.49
2013-9-14,63,49,42,50,44,40,95,84,48,29.96,29.80,12,2,18,0.14
2013-9-15,60,48,40,47,43,39,97,85,53,30.14,29.95,14,1,18,0.08
2013-9-16,64,48,37,47,41,36,98,78,44,30.17,30.03,11,2,13,0.09
2013-9-17,68,51,36,46,39,33,97,69,28,30.12,29.83,11,1,11,0.00
2013-9-18,65,48,40,48,40,34,96,79,33,29.97,29.74,16,2,25,0.11
2013-9-19,60,45,33,45,34,18,97,70,22,30.16,29.92,16,2,18,0.03
2013-9-20,67,45,29,36,26,13,92,57,14,30.22,30.05,11,2,12,0.01
2013-9-21,67,48,33,38,32,27,85,58,25,30.13,29.86,16,2,17,0.00
2013-9-22,58,43,36,47,38,32,97,84,59,29.86,29.59,13,1,16,0.43
2013-9-23,49,38,30,35,31,27,97,78,46,30.27,29.62,35,4,35,0.41
2013-9-24,65,42,28,33,25,13,93,60,16,30.37,30.01,11,2,13,0.00
2013-9-25,68,48,31,31,24,15,81,46,14,30.01,29.54,25,3,27,0.00
2013-9-26,68,51,35,31,25,17,70,42,16,29.61,29.50,15,2,18,0.00
2013-9-27,43,36,28,38,31,24,96,83,61,30.09,29.56,10,2,15,0.30
2013-9-28,54,36,22,29,23,17,90,65,32,30.40,30.09,14,2,15,0.01
2013-9-29,60,42,26,27,23,17,84,52,20,30.34,30.07,16,3,17,0.00
2013-9-30,67,47,31,34,28,23,77,52,23,30.14,29.87,18,2,19,0.00
2013-10-1,71,48,31,34,28,20,81,53,16,30.05,29.86,11,2,14,0.00
2013-10-2,68,47,30,31,25,16,83,50,15,29.97,29.80,10,2,15,0.00
2013-10-3,64,45,32,32,24,14,77,50,16,29.83,29.56,18,2,22,0.00
2013-10-4,32,26,19,26,22,16,94,87,70,30.43,29.62,16,4,18,0.14
2013-10-5,38,25,19,23,18,13,92,75,40,30.70,30.43,14,3,17,0.14
2013-10-6,54,32,16,31,23,14,90,72,35,30.75,30.54,14,2,14,0.02
2013-10-7,67,41,24,30,23,8,89,58,11,30.54,30.09,8,2,10,0.00
2013-10-8,66,46,34,30,24,12,73,48,14,30.09,29.74,14,2,15,0.00
2013-10-9,60,43,29,33,26,16,83,57,20,29.89,29.77,17,2,20,0.00
2013-10-10,48,37,30,40,30,26,95,76,45,29.87,29.54,17,2,19,0.02
2013-10-11,40,34,30,30,28,26,86,76,62,30.17,29.70,21,3,21,0.02
2013-10-12,51,35,23,26,22,16,86,65,27,30.30,30.13,13,2,13,0.00
2013-10-13,57,40,26,36,26,20,89,62,25,30.25,29.90,12,2,14,0.01
2013-10-14,37,31,27,31,28,25,95,89,69,30.24,29.81,15,2,15,0.05
2013-10-15,32,28,25,27,25,23,94,89,76,30.31,30.23,10,2,11,0.05
2013-10-16,38,28,21,24,21,16,92,76,45,30.34,30.23,14,2,17,0.02
2013-10-17,43,29,16,25,16,8,87,63,25,30.37,30.16,15,2,17,0.00
2013-10-18,33,25,17,26,17,12,92,71,43,30.45,30.11,16,4,21,0.09
2013-10-19,45,28,15,22,17,11,87,64,34,30.52,30.27,14,3,15,0.01
2013-10-20,41,31,23,28,22,18,89,71,44,30.28,30.06,13,2,15,0.00
2013-10-21,44,30,19,23,20,16,91,69,37,30.45,30.23,13,2,16,0.04
2013-10-22,53,34,21,26,22,17,88,66,30,30.50,30.33,10,2,13,0.00
2013-10-23,58,36,24,28,22,16,86,61,22,30.40,30.24,10,2,13,0.00
2013-10-24,58,37,23,26,20,12,83,56,16,30.36,30.22,10,2,11,0.00
2013-10-25,57,38,25,28,22,19,80,57,24,30.34,30.19,13,2,15,0.00
2013-10-26,55,37,25,27,22,15,86,59,21,30.41,30.28,12,2,14,0.00
2013-10-27,52,35,23,25,21,17,86,60,25,30.33,30.00,15,2,17,0.00
2013-10-28,52,37,26,27,21,15,81,57,25,30.02,29.80,15,2,17,0.00
2013-10-29,50,34,26,29,20,9,93,60,23,29.94,29.80,26,3,27,0.00
2013-10-30,33,26,21,28,22,19,95,84,61,30.08,29.84,22,2,22,0.08
2013-10-31,29,25,22,22,20,17,90,79,65,30.23,30.08,14,3,15,0.00
2013-11-1,35,27,18,24,20,14,89,75,50,30.53,30.21,22,4,25,0.01
2013-11-2,55,30,14,18,12,4,89,57,14,30.61,30.13,14,2,15,0.02
2013-11-3,50,32,18,27,17,9,92,57,24,30.14,29.68,19,3,21,0.00
2013-11-4,39,24,8,23,15,4,90,70,38,30.07,29.93,10,2,15,0.06
2013-11-5,27,17,4,24,11,0,89,79,52,30.62,30.02,15,3,15,0.03
2013-11-6,32,19,4,17,11,0,85,72,52,30.82,30.62,16,3,23,0.00
2013-11-7,50,29,14,23,17,10,91,65,31,30.83,30.30,12,2,17,0.01
2013-11-8,49,37,26,20,17,11,69,47,26,30.31,29.97,25,4,32,0.00
2013-11-9,50,32,24,22,18,16,73,58,26,30.43,30.17,9,2,10,0.00
2013-11-10,52,33,22,21,18,14,79,57,24,30.49,30.35,18,2,18,0.00
2013-11-11,51,32,20,21,17,11,85,60,20,30.64,30.44,18,2,18,0.00
2013-11-12,51,31,20,20,16,8,84,59,19,30.76,30.61,10,2,11,0.00
2013-11-13,50,31,17,19,14,8,74,53,20,30.67,30.25,11,2,12,0.00
2013-11-14,44,32,23,26,18,8,90,59,29,30.25,29.93,14,2,14,0.00
2013-11-15,45,30,18,27,16,6,93,60,26,29.93,29.67,19,2,23,0.00
2013-11-16,37,27,18,26,20,14,93,77,50,29.72,29.51,23,4,27,0.07
2013-11-17,37,25,16,20,17,13,89,72,44,30.41,29.68,45,5,47,0.18
2013-11-18,45,24,12,19,14,8,91,68,23,30.60,30.40,6,-2,7,0.01
2013-11-19,44,28,14,28,19,10,90,71,39,30.40,30.04,17,2,20,0.00
2013-11-20,40,32,28,28,24,22,92,75,49,30.05,29.88,8,1,10,0.04
2013-11-21,38,27,15,31,24,12,94,88,71,30.44,29.93,9,1,10,0.13
2013-11-22,30,21,14,24,17,12,91,84,68,30.71,30.44,10,1,12,0.01
2013-11-23,37,26,20,25,19,14,92,76,55,30.70,30.36,8,1,10,0.05
2013-11-24,31,26,18,27,23,15,93,88,81,30.36,30.12,14,3,14,0.01
2013-11-25,32,24,12,22,17,10,92,74,61,30.53,30.17,13,2,14,0.01
2013-11-26,38,24,13,18,15,9,88,71,42,30.62,30.50,14,2,15,0.01
2013-11-27,43,22,6,19,12,3,92,71,31,30.67,30.47,9,1,10,0.00
2013-11-28,47,26,14,22,14,11,88,67,25,30.52,30.32,5,1,6,0.00
2013-11-29,42,23,12,17,13,8,87,67,33,30.58,30.43,14,-2,14,0.00
2013-11-30,40,21,10,15,10,6,87,66,28,30.61,30.48,8,2,8,0.00
2013-12-1,38,24,9,22,14,6,88,66,38,30.59,30.32,20,4,27,0.00
2013-12-2,34,31,27,25,23,18,91,72,52,30.34,29.78,18,3,27,0.00
2013-12-3,32,28,25,28,25,18,93,86,56,29.78,29.40,12,1,22,0.00
2013-12-4,28,8,-7,25,4,-11,93,86,78,30.27,29.33,9,2,11,0.00
2013-12-5,9,-6,-17,1,-11,-21,87,79,67,30.58,30.27,9,2,11,0.10
2013-12-6,9,-2,-14,2,-7,-19,85,77,62,30.72,30.56,8,1,10,0.00
2013-12-7,21,9,0,10,3,-6,87,79,56,30.67,30.00,10,1,11,0.00
2013-12-8,11,7,-4,8,1,-9,89,77,54,30.32,29.91,13,2,17,0.00
2013-12-9,4,-5,-11,-4,-10,-16,87,76,60,31.06,30.31,14,3,16,0.00
2013-12-10,24,10,-12,12,3,-17,87,73,52,31.09,30.73,18,3,21,0.00
2013-12-11,32,12,-1,12,4,-5,90,73,36,30.93,30.68,8,2,8,0.11
2013-12-12,37,15,1,15,6,-3,87,71,33,30.98,30.53,7,2,7,0.11
2013-12-13,30,15,4,13,8,1,93,74,47,30.58,30.29,12,2,14,0.01
2013-12-14,23,16,10,12,10,5,89,79,62,30.78,30.55,14,3,16,0.00
2013-12-15,35,22,15,19,14,10,89,75,50,30.79,30.64,11,2,13,0.03
2013-12-16,43,22,12,21,13,8,89,70,33,30.76,30.65,8,2,9,0.02
2013-12-17,38,21,10,17,12,6,87,69,35,30.81,30.59,10,2,14,0.00
2013-12-18,46,26,12,14,11,7,85,59,21,30.59,30.03,12,2,15,0.00
2013-12-19,44,29,20,22,16,12,81,61,30,30.04,29.69,22,2,22,0.00
2013-12-20,28,20,6,22,16,3,91,84,72,29.93,29.74,8,1,9,0.04
2013-12-21,18,10,0,14,7,-4,89,85,80,30.30,29.89,11,2,13,0.01
2013-12-22,21,15,5,10,8,0,89,75,55,30.51,30.30,15,3,17,0.00
2013-12-23,27,22,16,17,13,8,79,68,59,30.68,30.48,15,3,15,0.00
2013-12-24,30,20,-1,23,14,-4,89,79,66,30.66,30.25,21,3,23,0.00
2013-12-25,26,7,-5,8,-1,-9,90,73,38,31.06,30.65,10,2,11,0.04
2013-12-26,32,15,2,17,7,-2,88,73,39,31.05,30.85,10,2,11,0.02
2013-12-27,36,17,7,19,11,3,95,80,47,30.87,30.61,7,1,7,0.01
2013-12-28,31,20,8,24,15,5,93,82,65,30.61,30.28,10,1,10,0.00
2013-12-29,22,14,6,17,8,2,90,79,58,30.50,30.29,10,2,12,0.02
2013-12-30,27,17,8,12,9,5,86,70,51,30.69,30.48,12,2,14,0.00
2013-12-31,33,25,9,23,18,5,87,75,62,30.59,30.23,14,2,15,0.00
2014-1-1,27,20,5,22,14,1,93,78,61,30.60,30.11,21,4,25,0.00
2014-1-2,30,15,0,16,7,-3,90,73,35,30.83,30.59,10,2,11,0.01